Time;durP1;ratioP1;P1;durP2;ratioP2;P2;SDS_P1;SDS_P2;PMS_P1;PMS_P2;Temp;Humidity;BMP_temperature;BMP_pressure;BME280_temperature;BME280_humidity;BME280_pressure;Samples;Min_cycle;Max_cycle;Signal;HPM_P1;HPM_P2
2022/11/22 00:00:51;;;;;;;;;;;6.70;99.90;;;;;;6270977;22;19935;-83
2022/11/22 00:03:17;;;;;;;;;;;6.70;99.90;;;;;;6272461;22;19916;-82
2022/11/22 00:05:42;;;;;;;;;;;6.70;99.90;;;;;;6272414;22;19903;-82
2022/11/22 00:08:08;;;;;;;;;;;6.70;99.90;;;;;;6272628;22;19910;-82
2022/11/22 00:10:34;;;;;;;;;;;6.80;99.90;;;;;;6272638;22;19911;-82
2022/11/22 00:12:59;;;;;;;;;;;6.80;99.90;;;;;;6273534;22;19939;-83
2022/11/22 00:15:25;;;;;;;;;;;6.80;99.90;;;;;;6272375;22;19903;-83
2022/11/22 00:17:50;;;;;;;;;;;6.80;99.90;;;;;;6272393;22;20331;-83
2022/11/22 00:20:16;;;;;;;;;;;6.90;99.90;;;;;;6272402;22;19903;-82
2022/11/22 00:22:42;;;;;;;;;;;6.90;99.90;;;;;;6272532;22;19955;-83
2022/11/22 00:25:08;;;;;;;;;;;6.90;99.90;;;;;;6272518;22;20007;-82
2022/11/22 00:27:33;;;;;;;;;;;6.90;99.90;;;;;;6272449;22;19903;-83
2022/11/22 00:29:59;;;;;;;;;;;6.90;99.90;;;;;;6273539;22;20307;-83
2022/11/22 00:32:25;;;;;;;;;;;6.90;99.90;;;;;;6272271;22;19912;-84
2022/11/22 00:34:50;;;;;;;;;;;7.40;99.90;;;;;;6272164;22;19911;-82
2022/11/22 00:37:16;;;;;;;;;;;6.90;99.90;;;;;;6272468;22;19910;-83
2022/11/22 00:39:41;;;;;;;;;;;6.90;99.90;;;;;;6272199;22;20328;-82
2022/11/22 00:42:07;;;;;;;;;;;7.00;99.90;;;;;;6272147;22;20336;-82
2022/11/22 00:44:32;;;;;;;;;;;6.90;99.90;;;;;;6272477;22;19903;-83
2022/11/22 00:46:58;;;;;;;;;;;6.90;99.90;;;;;;6273064;22;19904;-82
2022/11/22 00:49:23;;;;;;;;;;;6.90;99.90;;;;;;6271980;22;19903;-82
2022/11/22 00:51:49;;;;;;;;;;;6.90;99.90;;;;;;6272535;22;19985;-82
2022/11/22 00:54:14;;;;;;;;;;;6.90;99.90;;;;;;6272229;22;19903;-82
2022/11/22 00:56:40;;;;;;;;;;;6.90;99.90;;;;;;6271560;22;19954;-82
2022/11/22 00:59:05;;;;;;;;;;;7.80;99.90;;;;;;6272160;22;19910;-83
2022/11/22 01:01:31;;;;;;;;;;;7.00;99.90;;;;;;6273011;22;19914;-83
2022/11/22 01:03:56;;;;;;;;;;;7.00;99.90;;;;;;6271939;22;19911;-82
2022/11/22 01:06:22;;;;;;;;;;;7.10;99.90;;;;;;6245100;22;20236;-82
2022/11/22 01:08:47;;;;;;;;;;;7.20;99.90;;;;;;6272150;22;19914;-83
2022/11/22 01:11:14;;;;;;;;;;;7.20;99.90;;;;;;6272099;22;19910;-82
2022/11/22 01:13:40;;;;;;;;;;;7.20;99.90;;;;;;6271997;22;19948;-83
2022/11/22 01:16:06;;;;;;;;;;;7.30;99.90;;;;;;6271894;22;19908;-83
2022/11/22 01:18:32;;;;;;;;;;;7.30;99.90;;;;;;6272673;22;19910;-83
2022/11/22 01:20:58;;;;;;;;;;;7.40;99.90;;;;;;6272056;22;19978;-82
2022/11/22 01:23:24;;;;;;;;;;;7.60;99.90;;;;;;6271909;22;20393;-82
2022/11/22 01:25:49;;;;;;;;;;;7.50;99.90;;;;;;6271835;22;19957;-82
2022/11/22 01:28:15;;;;;;;;;;;7.40;99.90;;;;;;6271884;22;20351;-83
2022/11/22 01:30:41;;;;;;;;;;;7.40;99.90;;;;;;6271888;22;19903;-83
2022/11/22 01:33:07;;;;;;;;;;;7.40;99.90;;;;;;6271670;22;20328;-82
2022/11/22 01:35:32;;;;;;;;;;;7.60;99.90;;;;;;6273083;22;19949;-82
2022/11/22 01:37:58;;;;;;;;;;;7.40;99.90;;;;;;6271835;22;19986;-83
2022/11/22 01:40:23;;;;;;;;;;;7.30;99.90;;;;;;6271531;22;20252;-82
2022/11/22 01:42:53;;;;;;;;;;;7.30;99.90;;;;;;6271648;22;19918;-82
2022/11/22 01:45:40;;;;;;;;;;;7.40;99.90;;;;;;6271541;22;19910;-82
2022/11/22 01:48:26;;;;;;;;;;;7.30;99.90;;;;;;6272747;22;19903;-83
2022/11/22 01:50:53;;;;;;;;;;;7.30;99.90;;;;;;6270675;22;19903;-83
2022/11/22 01:53:21;;;;;;;;;;;7.20;99.90;;;;;;6271641;22;20239;-82
2022/11/22 01:55:47;;;;;;;;;;;7.20;99.90;;;;;;6271507;22;19903;-83
2022/11/22 01:58:13;;;;;;;;;;;7.10;99.90;;;;;;6271578;22;19910;-82
2022/11/22 02:00:39;;;;;;;;;;;7.20;99.90;;;;;;6271808;22;19903;-82
2022/11/22 02:03:07;;;;;;;;;;;7.20;99.90;;;;;;6272709;22;19964;-83
2022/11/22 02:05:33;;;;;;;;;;;7.20;99.90;;;;;;6272723;22;20324;-82
2022/11/22 02:08:01;;;;;;;;;;;7.20;99.90;;;;;;6273020;22;19904;-82
2022/11/22 02:10:28;;;;;;;;;;;7.10;99.90;;;;;;6273582;22;20357;-82
2022/11/22 02:12:56;;;;;;;;;;;7.10;99.90;;;;;;6273446;22;19911;-83
2022/11/22 02:15:21;;;;;;;;;;;7.30;99.90;;;;;;6246503;22;19903;-82
2022/11/22 02:17:47;;;;;;;;;;;7.10;99.90;;;;;;6273771;22;19914;-82
2022/11/22 02:20:15;;;;;;;;;;;7.20;99.90;;;;;;6273561;22;19903;-82
2022/11/22 02:22:44;;;;;;;;;;;7.30;99.90;;;;;;6273342;22;19911;-82
2022/11/22 02:25:17;;;;;;;;;;;7.20;99.90;;;;;;6273518;22;19903;-82
2022/11/22 02:27:43;;;;;;;;;;;7.20;99.90;;;;;;6273679;22;19903;-82
2022/11/22 02:30:09;;;;;;;;;;;7.20;99.90;;;;;;6273579;22;19926;-83
2022/11/22 02:32:34;;;;;;;;;;;7.30;99.90;;;;;;6274573;22;20252;-83
2022/11/22 02:35:00;;;;;;;;;;;7.20;99.90;;;;;;6273362;22;20339;-82
2022/11/22 02:37:31;;;;;;;;;;;7.20;99.90;;;;;;6273378;22;19940;-82
2022/11/22 02:39:59;;;;;;;;;;;7.20;99.90;;;;;;6264075;22;20329;-82
2022/11/22 02:42:25;;;;;;;;;;;7.10;99.90;;;;;;6273351;22;19915;-83
2022/11/22 02:44:51;;;;;;;;;;;7.10;99.90;;;;;;6273491;22;19914;-82
2022/11/22 02:47:16;;;;;;;;;;;7.10;99.90;;;;;;6273399;22;19904;-83
2022/11/22 02:49:42;;;;;;;;;;;7.10;99.90;;;;;;6273256;22;19903;-82
2022/11/22 02:52:07;;;;;;;;;;;7.20;99.90;;;;;;6274240;22;19986;-82
2022/11/22 02:54:33;;;;;;;;;;;7.20;99.90;;;;;;6273118;22;19904;-82
2022/11/22 02:56:58;;;;;;;;;;;7.40;99.90;;;;;;6271648;22;20520;-83
2022/11/22 02:59:24;;;;;;;;;;;7.20;99.90;;;;;;6273271;22;19911;-83
2022/11/22 03:01:49;;;;;;;;;;;7.20;99.90;;;;;;6273200;22;19914;-83
2022/11/22 03:04:23;;;;;;;;;;;7.20;99.90;;;;;;6273170;22;19931;-82
2022/11/22 03:06:55;;;;;;;;;;;7.30;99.90;;;;;;6273199;22;19910;-82
2022/11/22 03:09:22;;;;;;;;;;;7.30;99.90;;;;;;6273214;22;20287;-83
2022/11/22 03:11:48;;;;;;;;;;;7.30;99.90;;;;;;6273216;22;19961;-83
2022/11/22 03:14:14;;;;;;;;;;;7.40;99.90;;;;;;6273225;22;19903;-82
2022/11/22 03:16:41;;;;;;;;;;;7.90;99.90;;;;;;6274058;22;20252;-82
2022/11/22 03:19:06;;;;;;;;;;;7.40;99.90;;;;;;6273420;22;19910;-82
2022/11/22 03:21:32;;;;;;;;;;;7.40;99.90;;;;;;6272740;22;20461;-82
2022/11/22 03:23:57;;;;;;;;;;;7.50;99.90;;;;;;6273155;22;19907;-82
2022/11/22 03:26:23;;;;;;;;;;;7.50;99.90;;;;;;6272985;22;19941;-82
2022/11/22 03:28:48;;;;;;;;;;;7.60;99.90;;;;;;6273080;22;19909;-82
2022/11/22 03:31:14;;;;;;;;;;;7.50;99.90;;;;;;6272891;22;19904;-83
2022/11/22 03:33:39;;;;;;;;;;;7.50;99.90;;;;;;6273875;22;19903;-82
2022/11/22 03:36:05;;;;;;;;;;;7.40;99.90;;;;;;6271036;22;20340;-82
2022/11/22 03:38:30;;;;;;;;;;;7.60;99.90;;;;;;6273002;22;20337;-82
2022/11/22 03:40:56;;;;;;;;;;;7.50;99.90;;;;;;6245645;22;19911;-83
2022/11/22 03:43:22;;;;;;;;;;;7.50;99.90;;;;;;6245577;22;20260;-83
2022/11/22 03:45:47;;;;;;;;;;;7.60;99.90;;;;;;6272714;22;20283;-82
2022/11/22 03:48:13;;;;;;;;;;;8.00;99.90;;;;;;6272595;22;19965;-83
2022/11/22 03:50:39;;;;;;;;;;;7.50;99.90;;;;;;6273678;22;19911;-84
2022/11/22 03:53:04;;;;;;;;;;;7.70;99.90;;;;;;6272866;22;20319;-82
2022/11/22 03:55:30;;;;;;;;;;;7.40;99.90;;;;;;6272703;22;19956;-82
2022/11/22 03:57:55;;;;;;;;;;;7.50;99.90;;;;;;6272785;22;19956;-82
2022/11/22 04:00:22;;;;;;;;;;;7.30;99.90;;;;;;6272625;22;19903;-83
2022/11/22 04:02:48;;;;;;;;;;;7.30;99.90;;;;;;6272382;22;19915;-83
2022/11/22 04:05:13;;;;;;;;;;;7.70;99.90;;;;;;6272451;22;19964;-83
2022/11/22 04:07:39;;;;;;;;;;;7.40;99.90;;;;;;6273658;22;19949;-83
2022/11/22 04:10:05;;;;;;;;;;;7.40;99.90;;;;;;6272617;22;19910;-83
2022/11/22 04:12:30;;;;;;;;;;;7.30;99.90;;;;;;6272548;22;19904;-82
2022/11/22 04:15:08;;;;;;;;;;;7.40;99.90;;;;;;6272363;22;19904;-83
2022/11/22 04:17:44;;;;;;;;;;;7.30;99.90;;;;;;6272375;22;20226;-82
2022/11/22 04:23:01;;;;;;;;;;;7.30;99.90;;;;;;6272219;22;20012;-82
2022/11/22 04:25:28;;;;;;;;;;;7.40;99.90;;;;;;6272265;22;19965;-83
2022/11/22 04:27:54;;;;;;;;;;;7.40;99.90;;;;;;6272305;22;19903;-83
2022/11/22 04:30:20;;;;;;;;;;;7.40;99.90;;;;;;6272065;22;19991;-83
2022/11/22 04:32:45;;;;;;;;;;;7.40;99.90;;;;;;6272550;22;19910;-83
2022/11/22 04:35:15;;;;;;;;;;;7.50;99.90;;;;;;6273353;22;19949;-83
2022/11/22 04:37:41;;;;;;;;;;;7.50;99.90;;;;;;6273516;22;19903;-82
2022/11/22 04:40:07;;;;;;;;;;;7.40;99.90;;;;;;6271885;22;19912;-83
2022/11/22 04:45:16;;;;;;;;;;;7.60;99.90;;;;;;6272091;22;20282;-83
2022/11/22 04:48:00;;;;;;;;;;;7.40;99.90;;;;;;6273368;22;19907;-83
2022/11/22 04:53:14;;;;;;;;;;;7.40;99.90;;;;;;6272988;22;19926;-83
2022/11/22 04:55:40;;;;;;;;;;;7.40;99.90;;;;;;6272577;22;19909;-82
2022/11/22 04:58:05;;;;;;;;;;;7.40;99.90;;;;;;6272498;22;20412;-82
2022/11/22 05:00:31;;;;;;;;;;;7.30;99.90;;;;;;6272099;22;19926;-82
2022/11/22 05:02:56;;;;;;;;;;;7.40;99.90;;;;;;6271991;22;20008;-83
2022/11/22 05:05:22;;;;;;;;;;;7.50;99.90;;;;;;6272160;22;19986;-83
2022/11/22 05:07:48;;;;;;;;;;;7.40;99.90;;;;;;6271859;22;19911;-82
2022/11/22 05:10:13;;;;;;;;;;;7.50;99.90;;;;;;6273143;22;19910;-82
2022/11/22 05:12:40;;;;;;;;;;;7.40;99.90;;;;;;6272012;22;19938;-82
2022/11/22 05:15:05;;;;;;;;;;;7.40;99.90;;;;;;6271993;22;20342;-82
2022/11/22 05:17:31;;;;;;;;;;;7.40;99.90;;;;;;6271906;22;19903;-83
2022/11/22 05:19:56;;;;;;;;;;;7.40;99.90;;;;;;6271785;22;20389;-82
2022/11/22 05:23:53;;;;;;;;;;;7.40;99.90;;;;;;6245016;22;19912;-83
2022/11/22 05:25:10;;;;;;;;;;;8.10;99.90;;;;;;6271617;22;19984;-83
2022/11/22 05:27:36;;;;;;;;;;;7.30;99.90;;;;;;6271878;22;19903;-82
2022/11/22 05:30:01;;;;;;;;;;;7.30;99.90;;;;;;6271873;22;19904;-83
2022/11/22 05:32:28;;;;;;;;;;;7.30;99.90;;;;;;6271799;22;20247;-82
2022/11/22 05:34:54;;;;;;;;;;;7.50;99.90;;;;;;6271753;22;19904;-83
2022/11/22 05:37:20;;;;;;;;;;;7.40;99.90;;;;;;6271963;22;19903;-83
2022/11/22 05:39:46;;;;;;;;;;;7.40;99.90;;;;;;6261242;22;19919;-83
2022/11/22 05:42:11;;;;;;;;;;;7.40;99.90;;;;;;6272431;22;20255;-84
2022/11/22 05:44:36;;;;;;;;;;;7.40;99.90;;;;;;6272250;22;19907;-82
2022/11/22 05:47:02;;;;;;;;;;;7.40;99.90;;;;;;6273909;22;19926;-85
2022/11/22 05:49:28;;;;;;;;;;;7.40;99.90;;;;;;6273818;22;19907;-84
2022/11/22 05:51:53;;;;;;;;;;;7.40;99.90;;;;;;6274035;22;19903;-83
2022/11/22 05:54:19;;;;;;;;;;;7.50;99.90;;;;;;6274667;22;19904;-82
2022/11/22 05:56:44;;;;;;;;;;;7.40;99.90;;;;;;6274859;22;19949;-84
2022/11/22 05:59:10;;;;;;;;;;;7.70;99.90;;;;;;6273793;22;19903;-84
2022/11/22 06:01:36;;;;;;;;;;;7.40;99.90;;;;;;6273493;22;19907;-83
2022/11/22 06:04:01;;;;;;;;;;;7.40;99.90;;;;;;6273588;22;19942;-83
2022/11/22 06:06:27;;;;;;;;;;;7.40;99.90;;;;;;6273797;22;19910;-83
2022/11/22 06:08:52;;;;;;;;;;;7.40;99.90;;;;;;6273911;22;19926;-83
2022/11/22 06:11:22;;;;;;;;;;;7.90;99.90;;;;;;6273076;22;19907;-83
2022/11/22 06:13:50;;;;;;;;;;;7.50;99.90;;;;;;6274603;22;19997;-84
2022/11/22 06:16:15;;;;;;;;;;;7.50;99.90;;;;;;6274682;22;19957;-83
2022/11/22 06:18:41;;;;;;;;;;;8.30;99.90;;;;;;6273519;22;19903;-82
2022/11/22 06:21:10;;;;;;;;;;;7.50;99.90;;;;;;6273821;22;19956;-83
2022/11/22 06:23:35;;;;;;;;;;;7.30;99.90;;;;;;6273662;22;19943;-83
2022/11/22 06:26:02;;;;;;;;;;;7.40;99.90;;;;;;6267023;22;20294;-82
2022/11/22 06:28:29;;;;;;;;;;;7.40;99.90;;;;;;6271830;22;19909;-84
2022/11/22 06:31:05;;;;;;;;;;;7.40;99.90;;;;;;6270638;22;19903;-83
2022/11/22 06:33:31;;;;;;;;;;;7.30;99.90;;;;;;6272716;22;19938;-82
2022/11/22 06:36:03;;;;;;;;;;;7.30;99.90;;;;;;6274133;22;19903;-90
2022/11/22 06:38:51;;;;;;;;;;;7.30;99.90;;;;;;6273558;22;19938;-91
2022/11/22 06:41:21;;;;;;;;;;;7.30;99.90;;;;;;6275606;22;19969;-89
2022/11/22 06:43:47;;;;;;;;;;;7.30;99.90;;;;;;6274078;22;19911;-89
2022/11/22 06:46:19;;;;;;;;;;;7.50;99.90;;;;;;6274261;22;19903;-89
2022/11/22 06:48:44;;;;;;;;;;;7.60;99.90;;;;;;6247117;22;19990;-90
2022/11/22 06:51:11;;;;;;;;;;;8.50;99.90;;;;;;6247230;22;19949;-89
2022/11/22 06:53:43;;;;;;;;;;;7.40;99.90;;;;;;6246932;22;20305;-91
2022/11/22 06:56:09;;;;;;;;;;;7.60;99.90;;;;;;6274370;22;19907;-89
2022/11/22 06:58:35;;;;;;;;;;;7.50;99.90;;;;;;6247794;22;20360;-92
2022/11/22 07:01:00;;;;;;;;;;;7.60;99.90;;;;;;6247550;22;19910;-90
2022/11/22 07:03:26;;;;;;;;;;;7.50;99.90;;;;;;6273130;22;19973;-90
2022/11/22 07:05:52;;;;;;;;;;;8.30;99.90;;;;;;6244286;22;19903;-89
2022/11/22 07:08:18;;;;;;;;;;;7.70;99.90;;;;;;6241325;22;19965;-91
2022/11/22 07:10:44;;;;;;;;;;;7.50;99.90;;;;;;6243987;22;19907;-91
2022/11/22 07:13:15;;;;;;;;;;;8.90;99.90;;;;;;6247236;22;19904;-91
2022/11/22 07:15:40;;;;;;;;;;;8.00;99.90;;;;;;6276203;22;19911;-91
2022/11/22 07:18:13;;;;;;;;;;;7.70;99.90;;;;;;6247477;22;19903;-89
2022/11/22 07:20:46;;;;;;;;;;;8.40;99.90;;;;;;6275404;22;19911;-89
2022/11/22 07:23:14;;;;;;;;;;;7.50;99.90;;;;;;6273404;22;19911;-90
2022/11/22 07:25:48;;;;;;;;;;;7.80;99.90;;;;;;6246626;22;20355;-91
2022/11/22 07:28:15;;;;;;;;;;;7.70;99.90;;;;;;6274869;22;19903;-90
2022/11/22 07:30:44;;;;;;;;;;;8.00;99.90;;;;;;6276861;22;19904;-90
2022/11/22 07:33:09;;;;;;;;;;;7.50;99.90;;;;;;6248806;22;20332;-91
2022/11/22 07:35:35;;;;;;;;;;;8.90;99.90;;;;;;6249918;22;19941;-92
2022/11/22 07:38:24;;;;;;;;;;;7.60;99.90;;;;;;6250360;22;19927;-91
2022/11/22 07:41:21;;;;;;;;;;;8.20;99.90;;;;;;6275212;22;20263;-92
2022/11/22 07:43:46;;;;;;;;;;;7.70;99.90;;;;;;6261513;22;19917;-89
2022/11/22 07:46:43;;;;;;;;;;;7.70;99.90;;;;;;6245550;22;19986;-93
2022/11/22 07:49:09;;;;;;;;;;;7.40;99.90;;;;;;6244814;22;19908;-91
2022/11/22 07:51:43;;;;;;;;;;;8.10;99.90;;;;;;6245228;22;19951;-91
2022/11/22 07:54:42;;;;;;;;;;;;;;;;;;;;;
2022/11/22 07:57:10;;;;;;;;;;;7.80;99.90;;;;;;6224342;22;19930;-93
2022/11/22 07:59:53;;;;;;;;;;;8.00;99.90;;;;;;6245402;22;19944;-91
2022/11/22 08:02:19;;;;;;;;;;;8.00;99.90;;;;;;6287309;22;20324;-91
2022/11/22 08:04:45;;;;;;;;;;;6.30;99.90;;;;;;6259573;22;19914;-89
2022/11/22 08:07:10;;;;;;;;;;;8.20;99.90;;;;;;6252256;22;19910;-93
2022/11/22 08:09:36;;;;;;;;;;;8.00;99.90;;;;;;6257006;22;19910;-92
2022/11/22 08:12:04;;;;;;;;;;;7.70;99.90;;;;;;6277289;22;19904;-92
2022/11/22 08:14:29;;;;;;;;;;;7.70;99.90;;;;;;6272325;22;19982;-90
2022/11/22 08:16:55;;;;;;;;;;;7.70;99.90;;;;;;6249112;22;19899;-92
2022/11/22 08:19:21;;;;;;;;;;;7.70;99.90;;;;;;6257010;22;19911;-88
2022/11/22 08:21:47;;;;;;;;;;;7.70;99.90;;;;;;6286760;22;19942;-94
2022/11/22 08:24:15;;;;;;;;;;;8.60;99.90;;;;;;6257605;22;20267;-91
2022/11/22 08:26:53;;;;;;;;;;;7.80;99.90;;;;;;6287753;22;19913;-93
2022/11/22 08:29:19;;;;;;;;;;;7.80;99.90;;;;;;6267553;22;19914;-92
2022/11/22 08:31:44;;;;;;;;;;;7.70;99.90;;;;;;6254519;22;19903;-87
2022/11/22 08:34:13;;;;;;;;;;;7.80;99.90;;;;;;6266379;22;19911;-89
2022/11/22 08:36:39;;;;;;;;;;;7.80;99.90;;;;;;6294225;22;19919;-88
2022/11/22 08:39:06;;;;;;;;;;;7.90;99.90;;;;;;6292185;22;20012;-89
2022/11/22 08:41:33;;;;;;;;;;;7.90;99.90;;;;;;6256459;22;19949;-88
2022/11/22 08:43:58;;;;;;;;;;;7.90;99.90;;;;;;6284577;22;19911;-91
2022/11/22 08:46:24;;;;;;;;;;;8.00;99.90;;;;;;6281784;22;20007;-87
2022/11/22 08:48:53;;;;;;;;;;;8.00;99.90;;;;;;6289642;22;19956;-90
2022/11/22 08:51:18;;;;;;;;;;;8.40;99.90;;;;;;6286175;22;19899;-92
2022/11/22 08:53:46;;;;;;;;;;;8.10;99.90;;;;;;6279762;22;19930;-93
2022/11/22 08:56:14;;;;;;;;;;;8.10;99.90;;;;;;6284481;22;19911;-91
2022/11/22 08:58:40;;;;;;;;;;;8.20;99.90;;;;;;6277452;22;19907;-93
2022/11/22 09:01:11;;;;;;;;;;;8.20;99.90;;;;;;6280113;22;19904;-91
2022/11/22 09:03:37;;;;;;;;;;;8.20;99.90;;;;;;6282295;22;19918;-93
2022/11/22 09:06:07;;;;;;;;;;;8.30;99.90;;;;;;6278439;22;20251;-94
2022/11/22 09:08:33;;;;;;;;;;;8.30;99.90;;;;;;6249636;22;19903;-92
2022/11/22 09:11:03;;;;;;;;;;;8.30;99.90;;;;;;6255141;22;19938;-90
2022/11/22 09:13:31;;;;;;;;;;;8.30;99.90;;;;;;6286341;22;19907;-91
2022/11/22 09:16:04;;;;;;;;;;;8.50;99.90;;;;;;6283823;22;19903;-93
2022/11/22 09:18:32;;;;;;;;;;;8.50;99.90;;;;;;6288211;22;19887;-90
2022/11/22 09:21:02;;;;;;;;;;;8.60;99.90;;;;;;6285890;22;20351;-92
2022/11/22 09:23:27;;;;;;;;;;;8.60;99.90;;;;;;6291165;22;19951;-92
2022/11/22 09:26:16;;;;;;;;;;;8.70;99.90;;;;;;6297772;22;19903;-87
2022/11/22 09:28:42;;;;;;;;;;;8.80;99.90;;;;;;6291388;22;19943;-90
2022/11/22 09:31:12;;;;;;;;;;;8.80;99.90;;;;;;6284865;22;19982;-86
2022/11/22 09:33:38;;;;;;;;;;;8.80;99.90;;;;;;6276672;22;19913;-90
2022/11/22 09:36:05;;;;;;;;;;;8.80;99.90;;;;;;6283728;22;19904;-87
2022/11/22 09:38:37;;;;;;;;;;;8.90;99.90;;;;;;6288163;22;19949;-91
2022/11/22 09:41:27;;;;;;;;;;;9.00;99.90;;;;;;6294353;22;19919;-90
2022/11/22 09:44:16;;;;;;;;;;;9.00;99.90;;;;;;6297211;22;19905;-89
2022/11/22 09:47:01;;;;;;;;;;;9.80;99.90;;;;;;6301235;22;19907;-93
2022/11/22 09:49:56;;;;;;;;;;;9.10;99.90;;;;;;6296618;22;19892;-93
2022/11/22 09:52:36;;;;;;;;;;;9.10;99.90;;;;;;6298079;22;20286;-90
2022/11/22 09:55:05;;;;;;;;;;;9.20;99.90;;;;;;6285485;22;19907;-86
2022/11/22 09:57:40;;;;;;;;;;;9.20;99.90;;;;;;6273899;22;19911;-87
2022/11/22 10:00:15;;;;;;;;;;;9.20;99.90;;;;;;6274734;22;19904;-88
2022/11/22 10:02:42;;;;;;;;;;;9.30;99.90;;;;;;6287271;22;19959;-93
2022/11/22 10:05:14;;;;;;;;;;;9.30;99.90;;;;;;6288382;22;19923;-93
2022/11/22 10:07:43;;;;;;;;;;;9.40;99.90;;;;;;6289474;22;20275;-94
2022/11/22 10:10:12;;;;;;;;;;;9.50;99.90;;;;;;6286795;22;20354;-92
2022/11/22 10:12:37;;;;;;;;;;;9.60;99.90;;;;;;6281465;22;19936;-93
2022/11/22 10:15:12;;;;;;;;;;;9.60;99.90;;;;;;6289503;22;19990;-93
2022/11/22 10:17:52;;;;;;;;;;;9.70;99.90;;;;;;6292236;22;19946;-94
2022/11/22 10:20:19;;;;;;;;;;;9.80;99.90;;;;;;6284111;22;19907;-86
2022/11/22 10:22:45;;;;;;;;;;;9.80;99.90;;;;;;6252558;22;19911;-86
2022/11/22 10:25:18;;;;;;;;;;;9.90;99.90;;;;;;6277186;22;19974;-89
2022/11/22 10:27:47;;;;;;;;;;;9.90;99.90;;;;;;6280989;22;19904;-88
2022/11/22 10:30:18;;;;;;;;;;;9.90;99.90;;;;;;6282359;22;20244;-87
2022/11/22 10:32:51;;;;;;;;;;;9.90;99.90;;;;;;6282561;22;20339;-88
2022/11/22 10:35:23;;;;;;;;;;;9.90;99.90;;;;;;6288018;22;20128;-90
2022/11/22 10:37:51;;;;;;;;;;;10.00;99.90;;;;;;6284700;22;19957;-87
2022/11/22 10:40:37;;;;;;;;;;;10.20;99.90;;;;;;6285296;22;19926;-88
2022/11/22 10:43:21;;;;;;;;;;;10.10;99.90;;;;;;6300085;22;19915;-87
2022/11/22 10:45:52;;;;;;;;;;;10.20;99.90;;;;;;6268362;22;20231;-88
2022/11/22 10:48:24;;;;;;;;;;;10.20;99.90;;;;;;6287253;22;19942;-92
2022/11/22 10:51:08;;;;;;;;;;;10.20;99.90;;;;;;6285722;22;19931;-91
2022/11/22 10:53:36;;;;;;;;;;;10.20;99.90;;;;;;6282118;22;19903;-89
2022/11/22 10:56:10;;;;;;;;;;;10.30;99.90;;;;;;6255717;22;19911;-92
2022/11/22 10:58:36;;;;;;;;;;;10.30;99.90;;;;;;6286747;22;19903;-91
2022/11/22 11:01:07;;;;;;;;;;;10.30;99.90;;;;;;6287110;22;19903;-87
2022/11/22 11:03:35;;;;;;;;;;;10.40;99.90;;;;;;6280400;22;19959;-87
2022/11/22 11:06:10;;;;;;;;;;;10.40;99.90;;;;;;6252931;22;19910;-93
2022/11/22 11:08:41;;;;;;;;;;;10.50;99.90;;;;;;6258192;22;19910;-89
2022/11/22 11:11:07;;;;;;;;;;;10.40;99.90;;;;;;6288763;22;19903;-89
2022/11/22 11:13:35;;;;;;;;;;;10.40;99.90;;;;;;6296348;22;19910;-87
2022/11/22 11:16:07;;;;;;;;;;;10.50;99.90;;;;;;6271374;22;19903;-87
2022/11/22 11:18:39;;;;;;;;;;;10.50;99.90;;;;;;6270678;22;20284;-92
2022/11/22 11:21:06;;;;;;;;;;;10.50;99.90;;;;;;6259852;22;19904;-90
2022/11/22 11:23:36;;;;;;;;;;;10.50;99.90;;;;;;6287293;22;19911;-93
2022/11/22 11:26:22;;;;;;;;;;;10.50;99.90;;;;;;6286038;22;19956;-90
2022/11/22 11:28:47;;;;;;;;;;;10.60;99.90;;;;;;6283695;22;19990;-93
2022/11/22 11:31:14;;;;;;;;;;;10.60;99.90;;;;;;6277643;22;19904;-89
2022/11/22 11:33:40;;;;;;;;;;;10.70;99.90;;;;;;6256921;22;19903;-90
2022/11/22 11:36:06;;;;;;;;;;;10.70;99.90;;;;;;6249900;22;19939;-92
2022/11/22 11:38:33;;;;;;;;;;;10.70;99.90;;;;;;6284684;22;19903;-91
2022/11/22 11:41:37;;;;;;;;;;;10.80;99.90;;;;;;6284654;22;19911;-93
2022/11/22 11:44:03;;;;;;;;;;;10.90;99.90;;;;;;6131577;23;19936;-90
2022/11/22 11:46:47;;;;;;;;;;;10.90;99.90;;;;;;6138365;23;19917;-87
2022/11/22 11:49:19;;;;;;;;;;;10.80;99.90;;;;;;6226459;22;19904;-87
2022/11/22 11:51:48;;;;;;;;;;;10.70;99.90;;;;;;6285169;22;19922;-86
2022/11/22 11:54:18;;;;;;;;;;;10.70;99.90;;;;;;6282907;22;19903;-95
2022/11/22 11:56:51;;;;;;;;;;;10.70;99.90;;;;;;6250357;22;19904;-94
2022/11/22 11:59:18;;;;;;;;;;;10.80;99.90;;;;;;6279618;22;19926;-93
2022/11/22 12:01:49;;;;;;;;;;;10.90;99.90;;;;;;6277149;22;20328;-91
2022/11/22 12:04:18;;;;;;;;;;;10.90;99.90;;;;;;6278395;22;19986;-93
2022/11/22 12:06:51;;;;;;;;;;;10.90;99.90;;;;;;6277312;22;20240;-92
2022/11/22 12:09:26;;;;;;;;;;;10.90;99.90;;;;;;6251087;22;19903;-90
2022/11/22 12:11:52;;;;;;;;;;;10.90;99.90;;;;;;6280616;22;19903;-93
2022/11/22 12:14:22;;;;;;;;;;;10.80;99.90;;;;;;6280379;22;19904;-91
2022/11/22 12:16:51;;;;;;;;;;;10.90;99.90;;;;;;6277208;22;19907;-91
2022/11/22 12:19:33;;;;;;;;;;;10.90;99.90;;;;;;6279708;22;19907;-91
2022/11/22 12:21:59;;;;;;;;;;;11.00;99.90;;;;;;6279062;22;19911;-94
2022/11/22 12:24:32;;;;;;;;;;;11.00;99.90;;;;;;6277336;22;19953;-92
2022/11/22 12:26:58;;;;;;;;;;;11.10;99.90;;;;;;6284049;22;19910;-94
2022/11/22 12:29:24;;;;;;;;;;;11.00;99.90;;;;;;6285384;22;19987;-92
2022/11/22 12:32:08;;;;;;;;;;;11.00;99.90;;;;;;6283310;22;19903;-91
2022/11/22 12:34:42;;;;;;;;;;;11.20;99.90;;;;;;6275703;22;19926;-91
2022/11/22 12:37:13;;;;;;;;;;;11.20;99.90;;;;;;6273994;22;19903;-88
2022/11/22 12:39:43;;;;;;;;;;;11.20;99.90;;;;;;6279759;22;20029;-91
2022/11/22 12:42:12;;;;;;;;;;;11.30;99.90;;;;;;6277368;22;19911;-89
2022/11/22 12:44:41;;;;;;;;;;;11.30;99.90;;;;;;6275869;22;19903;-91
2022/11/22 12:47:08;;;;;;;;;;;11.30;99.90;;;;;;6278757;22;19958;-87
2022/11/22 12:49:41;;;;;;;;;;;11.30;99.90;;;;;;6288196;22;19945;-92
2022/11/22 12:52:09;;;;;;;;;;;11.30;99.90;;;;;;6285206;22;19949;-93
2022/11/22 12:54:58;;;;;;;;;;;11.30;99.90;;;;;;6289331;22;19903;-93
2022/11/22 12:57:46;;;;;;;;;;;11.30;99.90;;;;;;6270591;22;19903;-89
2022/11/22 13:00:13;;;;;;;;;;;11.40;99.90;;;;;;6293620;22;19982;-93
2022/11/22 13:02:39;;;;;;;;;;;11.40;99.90;;;;;;6281572;22;19935;-85
2022/11/22 13:05:26;;;;;;;;;;;11.30;99.90;;;;;;6300144;22;19907;-94
2022/11/22 13:08:18;;;;;;;;;;;11.40;99.90;;;;;;6206455;23;19900;-92
2022/11/22 13:11:06;;;;;;;;;;;12.00;99.90;;;;;;6183223;23;19899;-93
2022/11/22 13:13:41;;;;;;;;;;;12.00;99.90;;;;;;6168246;23;19904;-88
2022/11/22 13:16:08;;;;;;;;;;;11.70;99.90;;;;;;6195469;23;20226;-96
2022/11/22 13:18:37;;;;;;;;;;;11.60;99.90;;;;;;6196273;23;19905;-88
2022/11/22 13:21:14;;;;;;;;;;;11.70;99.90;;;;;;6203183;23;19924;-91
2022/11/22 13:23:45;;;;;;;;;;;12.20;99.90;;;;;;6195407;23;19916;-91
2022/11/22 13:26:37;;;;;;;;;;;12.00;99.90;;;;;;6193852;23;19908;-92
2022/11/22 13:29:08;;;;;;;;;;;11.70;99.90;;;;;;6188940;23;19912;-94
2022/11/22 13:31:34;;;;;;;;;;;11.60;99.90;;;;;;6187952;23;19904;-90
2022/11/22 13:34:00;;;;;;;;;;;11.70;99.90;;;;;;6158763;23;19971;-92
2022/11/22 13:36:25;;;;;;;;;;;11.70;99.90;;;;;;6181267;23;19944;-90
2022/11/22 13:38:52;;;;;;;;;;;11.60;99.90;;;;;;6193397;22;19910;-90
2022/11/22 13:41:23;;;;;;;;;;;11.60;99.90;;;;;;6275503;22;19949;-94
2022/11/22 13:43:53;;;;;;;;;;;11.60;99.90;;;;;;6275963;22;19912;-92
2022/11/22 13:46:57;;;;;;;;;;;11.60;99.90;;;;;;6276708;22;19903;-88
2022/11/22 13:49:29;;;;;;;;;;;11.60;99.90;;;;;;6119480;23;19912;-87
2022/11/22 13:51:56;;;;;;;;;;;11.60;99.90;;;;;;6120113;23;19909;-90
2022/11/22 13:54:38;;;;;;;;;;;11.50;99.90;;;;;;6197751;22;20308;-86
2022/11/22 13:57:22;;;;;;;;;;;11.50;99.90;;;;;;6273045;22;20249;-86
2022/11/22 14:00:06;;;;;;;;;;;11.50;99.90;;;;;;6271378;22;19907;-86
2022/11/22 14:02:32;;;;;;;;;;;11.40;99.90;;;;;;6272550;22;19907;-86
2022/11/22 14:04:57;;;;;;;;;;;11.40;99.90;;;;;;6273617;22;19913;-87
2022/11/22 14:07:42;;;;;;;;;;;11.20;99.90;;;;;;6246297;22;20327;-87
2022/11/22 14:10:25;;;;;;;;;;;11.30;99.90;;;;;;6246707;22;19957;-87
2022/11/22 14:13:10;;;;;;;;;;;11.30;99.90;;;;;;6273996;22;19911;-86
2022/11/22 14:15:54;;;;;;;;;;;11.40;99.90;;;;;;6274635;22;19910;-92
2022/11/22 14:18:19;;;;;;;;;;;11.10;99.90;;;;;;6274590;22;20290;-87
2022/11/22 14:21:00;;;;;;;;;;;11.00;99.90;;;;;;6273830;22;19903;-94
2022/11/22 14:23:32;;;;;;;;;;;11.00;99.90;;;;;;6275424;22;19993;-88
2022/11/22 14:26:13;;;;;;;;;;;10.90;99.90;;;;;;6274022;22;19955;-86
2022/11/22 14:28:48;;;;;;;;;;;10.90;99.90;;;;;;6273549;22;19947;-86
2022/11/22 14:31:20;;;;;;;;;;;10.90;99.90;;;;;;6273015;22;20009;-86
2022/11/22 14:34:04;;;;;;;;;;;10.90;99.90;;;;;;6273505;22;19904;-89
2022/11/22 14:36:29;;;;;;;;;;;11.00;99.90;;;;;;6274210;22;19908;-88
2022/11/22 14:38:55;;;;;;;;;;;11.00;99.90;;;;;;6273431;22;19908;-87
2022/11/22 14:41:26;;;;;;;;;;;11.00;99.90;;;;;;6273642;22;19907;-86
2022/11/22 14:43:54;;;;;;;;;;;11.80;99.90;;;;;;6245729;22;19986;-87
2022/11/22 14:46:23;;;;;;;;;;;11.00;99.90;;;;;;6273105;22;19907;-88
2022/11/22 14:48:53;;;;;;;;;;;11.00;99.90;;;;;;6273105;22;20345;-87